Weather at Korenovsk Air Base

Public forecast

Using degrees Celsius for public forecast. Weather courtesy of forecast.io.

Closest aviation weather report (METAR) to Korenovsk Air Base

Closest report is Krasnodar Pashkovsky International Airport, 27.0 nm (50.0 km) SSW. Retrieved 2020/10/24 08:30 UTC (10 minutes ago):

URKK 240830Z 15003MPS 110V180 CAVOK 18/11 Q1018 R23L/CLRD70 NOSIG RMK QFE760

Closest aviation forecast (TAF) to Korenovsk Air Base

Closest forecast is Krasnodar Pashkovsky International Airport, 27.0 nm (50.0 km) SSW. Retrieved 2020/10/24 09:21 UTC (0 seconds ago):

TAF URKK 240752Z 2409/2509 22003G08MPS 9999 SCT040 TEMPO 2409/2509 14003G08MPS